createdAt,value
2024-02-24T13:21:33.527Z,94.32
2024-02-24T13:22:34.576Z,91.12
2024-02-24T13:23:35.752Z,90.82
2024-02-24T13:24:36.867Z,84.35
2024-02-24T13:25:40.750Z,85.92
2024-02-24T13:26:39.190Z,91.15
2024-02-24T13:27:40.452Z,88.31
2024-02-24T13:28:41.385Z,87.8
2024-02-24T13:29:42.583Z,86.62
2024-02-24T13:30:43.662Z,87.13
2024-02-24T13:31:44.591Z,87.71
2024-02-24T13:32:45.713Z,90.45
2024-02-24T13:33:47.656Z,90.23
2024-02-24T13:34:49.298Z,88.91
2024-02-24T13:35:50.592Z,90.26
2024-02-24T13:36:52.078Z,88.6
2024-02-24T13:37:53.151Z,87.62
2024-02-24T13:38:54.318Z,88.22
2024-02-24T13:39:55.617Z,87.58
2024-02-24T13:40:56.828Z,85.2
2024-02-24T13:41:58.025Z,84.13
2024-02-24T13:42:59.255Z,85.47
2024-02-24T13:44:00.271Z,87.23
2024-02-24T13:45:01.658Z,88.66
2024-02-24T13:46:03.111Z,88.48
2024-02-24T13:47:04.283Z,89.59
2024-02-24T13:48:05.471Z,91
2024-02-24T13:49:07.166Z,92.97
2024-02-24T13:50:08.542Z,93.34
2024-02-24T13:51:09.625Z,91.12
2024-02-24T13:52:10.648Z,93.38
2024-02-24T13:53:13.079Z,92.66
2024-02-24T13:54:14.052Z,92.26
2024-02-24T13:55:15.232Z,92.96
2024-02-24T13:56:16.346Z,94.01
2024-02-24T13:57:17.323Z,93.59
2024-02-24T13:58:18.246Z,95.41
2024-02-24T13:59:19.406Z,95.27
2024-02-24T14:00:20.405Z,95.29
2024-02-24T14:01:21.528Z,95.06
2024-02-24T14:02:22.632Z,94.87
2024-02-24T14:03:24.197Z,94.51
2024-02-24T14:04:25.646Z,94.09
2024-02-24T14:05:27.057Z,93.81
2024-02-24T14:06:28.351Z,95.05
2024-02-24T14:07:29.632Z,94.31
2024-02-24T14:08:30.763Z,95.28
2024-02-24T14:09:31.936Z,94.92
2024-02-24T14:10:32.835Z,96.28
2024-02-24T14:11:33.995Z,97.27
2024-02-24T14:12:35.406Z,94.2
2024-02-24T14:13:36.571Z,92.5
2024-02-24T14:14:37.676Z,94.23
2024-02-24T14:15:38.773Z,95.82
2024-02-24T14:16:39.942Z,94.39
2024-02-24T14:17:41.284Z,96.23
2024-02-24T14:18:42.974Z,96.21
2024-02-24T14:19:44.653Z,96.39
2024-02-24T14:20:45.737Z,98.04
2024-02-24T14:21:46.807Z,96.23
2024-02-24T14:22:47.883Z,93.99
2024-02-24T14:23:49.479Z,96.22
2024-02-24T14:24:50.738Z,95.15
2024-02-24T14:25:51.949Z,92.7
2024-02-24T14:26:53.068Z,89.41
2024-02-24T14:27:54.432Z,88.11
2024-02-24T14:29:02.358Z,86.42
2024-02-24T14:29:58.248Z,87.91
2024-02-24T14:30:59.395Z,89.53
2024-02-24T14:32:00.282Z,88.85
2024-02-24T14:33:01.558Z,90.12
2024-02-24T14:34:03.211Z,90.14
2024-02-24T14:35:04.574Z,90.04
2024-02-24T14:36:05.797Z,90.77
2024-02-24T14:37:06.989Z,91.44
2024-02-24T14:38:08.028Z,93.94
2024-02-24T14:39:09.346Z,93.5
2024-02-24T14:40:10.462Z,95.63
2024-02-24T14:41:11.381Z,94.64
2024-02-24T14:42:12.355Z,94.6
2024-02-24T14:43:13.497Z,95.02
2024-02-24T14:44:14.500Z,95.59
2024-02-24T14:45:15.537Z,96.43
2024-02-24T14:46:16.413Z,97.97
2024-02-24T14:47:17.512Z,97.25
2024-02-24T14:48:18.684Z,98.77
2024-02-24T14:49:20.025Z,100
2024-02-24T14:50:21.418Z,100
2024-02-24T14:51:22.514Z,100
2024-02-24T14:52:23.427Z,100
2024-02-24T14:53:24.473Z,100
2024-02-24T14:54:25.601Z,100
2024-02-24T14:55:26.552Z,100
2024-02-24T14:56:27.543Z,100
2024-02-24T14:57:28.533Z,100
2024-02-24T14:58:29.442Z,100
2024-02-24T14:59:30.742Z,100
2024-02-24T15:00:32.173Z,100
2024-02-24T15:01:33.424Z,100
2024-02-24T15:02:53.177Z,100
2024-02-24T15:03:36.912Z,100
2024-02-24T15:04:40.157Z,100
2024-02-24T15:05:40.677Z,100
2024-02-24T15:06:43.222Z,100
2024-02-24T15:07:44.746Z,100
2024-02-24T15:08:46.290Z,100
2024-02-24T15:09:47.694Z,100
2024-02-24T15:10:48.773Z,100
2024-02-24T15:11:50.293Z,100
2024-02-24T15:12:51.726Z,100
2024-02-24T15:13:52.679Z,100
2024-02-24T15:14:53.901Z,100
2024-02-24T15:15:55.134Z,100
2024-02-24T15:16:56.138Z,100
2024-02-24T15:17:57.391Z,100
2024-02-24T15:18:58.846Z,100
2024-02-24T15:20:04.229Z,100
2024-02-24T15:21:02.547Z,100
2024-02-24T15:22:03.975Z,99.45
2024-02-24T15:23:04.912Z,100
2024-02-24T15:24:06.148Z,100
2024-02-24T15:25:07.373Z,100
2024-02-24T15:26:08.540Z,100
2024-02-24T15:27:09.500Z,99.53
2024-02-24T15:28:10.730Z,99.49
2024-02-24T15:29:14.665Z,100
2024-02-24T15:30:13.105Z,99.61
2024-02-24T15:31:14.423Z,100
2024-02-24T15:32:15.471Z,100
2024-02-24T15:33:16.899Z,100
2024-02-24T15:34:18.564Z,100
2024-02-24T15:35:19.854Z,100
2024-02-24T15:36:20.860Z,100
2024-02-24T15:37:21.789Z,100
2024-02-24T15:38:22.921Z,100
2024-02-24T15:39:24.470Z,100
2024-02-24T15:40:25.502Z,99.33
2024-02-24T15:41:26.567Z,99.26
2024-02-24T15:42:27.846Z,98
2024-02-24T15:43:28.785Z,97.81
2024-02-24T15:44:29.900Z,98.25
2024-02-24T15:45:31.012Z,97.51
2024-02-24T15:46:31.985Z,93.88
2024-02-24T15:47:33.268Z,94.87
2024-02-24T15:48:34.842Z,97.68
2024-02-24T15:49:36.483Z,96.31
2024-02-24T15:50:37.767Z,92.99
2024-02-24T15:51:39.353Z,95.7
2024-02-24T15:52:40.645Z,95.31
2024-02-24T15:53:41.696Z,92.8
2024-02-24T15:54:43.077Z,88.98
2024-02-24T15:55:44.171Z,92
2024-02-24T15:56:45.265Z,92.11
2024-02-24T15:57:46.316Z,90.75
2024-02-24T15:58:47.256Z,93.36
2024-02-24T15:59:48.190Z,96.47
2024-02-24T16:00:49.551Z,96.99
2024-02-24T16:01:50.638Z,98.04
2024-02-24T16:02:51.787Z,100
2024-02-24T16:03:53.237Z,100
2024-02-24T16:04:54.390Z,100
2024-02-24T16:05:55.779Z,100
2024-02-24T16:06:57.334Z,100
2024-02-24T16:07:58.615Z,100
2024-02-24T16:08:59.776Z,100
2024-02-24T16:10:01.236Z,100
2024-02-24T16:11:02.440Z,100
2024-02-24T16:12:03.578Z,100
2024-02-24T16:13:05.155Z,100
2024-02-24T16:14:06.109Z,100
2024-02-24T16:15:07.731Z,100
2024-02-24T16:16:08.945Z,100
2024-02-24T16:17:10.021Z,100
2024-02-24T16:18:11.125Z,100
2024-02-24T16:19:17.932Z,100
2024-02-24T16:20:13.125Z,100
2024-02-24T16:21:14.070Z,100
2024-02-24T16:22:15.094Z,100
2024-02-24T16:23:16.124Z,100
2024-02-24T16:24:17.366Z,100
2024-02-24T16:25:18.376Z,100
2024-02-24T16:26:19.874Z,100
2024-02-24T16:27:20.959Z,100
2024-02-24T16:28:21.893Z,100
2024-02-24T16:29:23.077Z,100
2024-02-24T16:30:24.681Z,100
2024-02-24T16:31:26.481Z,100
2024-02-24T16:32:27.725Z,100
2024-02-24T16:33:30.269Z,100
2024-02-24T16:34:32.818Z,100
2024-02-24T16:35:35.027Z,100
2024-02-24T16:36:36.325Z,100
2024-02-24T16:37:37.290Z,100
2024-02-24T16:38:38.420Z,100
2024-02-24T16:39:39.766Z,100
2024-02-24T16:40:41.393Z,100
2024-02-24T16:41:42.935Z,100
2024-02-24T16:42:44.239Z,100
2024-02-24T16:43:45.786Z,100
2024-02-24T16:44:47.321Z,100
2024-02-24T16:45:48.485Z,100
2024-02-24T16:46:49.393Z,100
2024-02-24T16:47:50.687Z,100
2024-02-24T16:48:52.264Z,100
2024-02-24T16:49:53.941Z,100
2024-02-24T16:50:54.661Z,100
2024-02-24T16:51:55.795Z,100
2024-02-24T16:52:56.723Z,100
2024-02-24T16:53:58.617Z,100
2024-02-24T16:54:59.768Z,100
2024-02-24T16:56:00.966Z,100
2024-02-24T16:57:02.462Z,100
2024-02-24T16:58:03.480Z,100
2024-02-24T16:59:04.423Z,100
2024-02-24T17:00:10.249Z,100
2024-02-24T17:01:08.456Z,100
2024-02-24T17:02:09.752Z,100
2024-02-24T17:03:10.650Z,100
2024-02-24T17:04:11.757Z,100
2024-02-24T17:05:12.816Z,100
2024-02-24T17:06:14.121Z,100
2024-02-24T17:07:15.298Z,100
2024-02-24T17:08:20.991Z,100
2024-02-24T17:09:19.272Z,100
2024-02-24T17:10:20.233Z,100
2024-02-24T17:11:21.934Z,100
2024-02-24T17:12:23.916Z,100
2024-02-24T17:13:25.135Z,100
2024-02-24T17:14:26.146Z,100
2024-02-24T17:15:27.198Z,100
2024-02-24T17:16:28.221Z,100
2024-02-24T17:17:29.352Z,100
2024-02-24T17:18:37.435Z,100
2024-02-24T17:19:32.922Z,100
2024-02-24T17:20:34.694Z,100
2024-02-24T17:21:36.079Z,100
2024-02-24T17:22:37.015Z,100
2024-02-24T17:23:38.021Z,100
2024-02-24T17:24:39.456Z,100
2024-02-24T17:25:40.420Z,100
2024-02-24T17:26:42.229Z,100
2024-02-24T17:27:50.481Z,100
2024-02-24T17:28:45.062Z,100
2024-02-24T17:29:46.869Z,100
2024-02-24T17:30:48.260Z,100
2024-02-24T17:31:49.187Z,100
2024-02-24T17:32:51.516Z,100
2024-02-24T17:33:50.466Z,100
2024-02-24T17:34:51.782Z,100
2024-02-24T17:35:53.186Z,100
2024-02-24T17:36:54.804Z,100
2024-02-24T17:37:55.732Z,100
2024-02-24T17:38:57.061Z,100
2024-02-24T17:39:58.585Z,100
2024-02-24T17:41:01.760Z,100
2024-02-24T17:42:02.986Z,100
2024-02-24T17:43:04.252Z,100
2024-02-24T17:44:05.190Z,100
2024-02-24T17:45:06.429Z,100
2024-02-24T17:46:07.560Z,100
2024-02-24T17:47:08.662Z,100
2024-02-24T17:48:10.106Z,100
2024-02-24T17:49:12.025Z,100
2024-02-24T17:50:13.296Z,100
2024-02-24T17:51:14.227Z,100
2024-02-24T17:52:15.237Z,100
2024-02-24T17:53:16.385Z,100
2024-02-24T17:54:17.306Z,100
2024-02-24T17:55:21.237Z,100
2024-02-24T17:56:19.572Z,100
2024-02-24T17:57:20.937Z,100
2024-02-24T17:58:36.520Z,100
2024-02-24T17:59:23.591Z,100
2024-02-24T18:00:24.636Z,100
2024-02-24T18:01:25.640Z,100
2024-02-24T18:02:26.700Z,100
2024-02-24T18:03:27.895Z,100
2024-02-24T18:04:28.979Z,100
2024-02-24T18:05:30.419Z,100
2024-02-24T18:06:31.971Z,100
2024-02-24T18:07:33.353Z,100
2024-02-24T18:08:34.443Z,100
2024-02-24T18:09:35.700Z,100
2024-02-24T18:10:36.666Z,100
2024-02-24T18:11:37.973Z,100
2024-02-24T18:12:39.579Z,100
2024-02-24T18:13:40.740Z,100
2024-02-24T18:14:42.014Z,100
2024-02-24T18:15:43.117Z,100
2024-02-24T18:16:44.153Z,100
2024-02-24T18:17:45.417Z,100
2024-02-24T18:18:47.256Z,100
2024-02-24T18:19:48.858Z,100
2024-02-24T18:20:50.053Z,100
2024-02-24T18:21:51.345Z,100
2024-02-24T18:22:52.315Z,100
2024-02-24T18:23:53.320Z,100
2024-02-24T18:24:54.487Z,100
2024-02-24T18:25:55.472Z,100
2024-02-24T18:26:56.653Z,100
2024-02-24T18:27:58.104Z,100
2024-02-24T18:28:59.211Z,100
2024-02-24T18:30:05.946Z,100
2024-02-24T18:31:01.161Z,100
2024-02-24T18:32:02.180Z,100
2024-02-24T18:33:03.551Z,100
2024-02-24T18:34:05.276Z,100
2024-02-24T18:35:06.829Z,100
2024-02-24T18:36:07.885Z,100
2024-02-24T18:37:08.915Z,100
2024-02-24T18:38:09.865Z,100
2024-02-24T18:39:10.937Z,100
2024-02-24T18:40:11.888Z,100
2024-02-24T18:41:13.213Z,100
2024-02-24T18:42:14.295Z,100
2024-02-24T18:43:15.381Z,100
2024-02-24T18:44:16.405Z,100
2024-02-24T18:45:17.405Z,100
2024-02-24T18:46:18.475Z,100
2024-02-24T18:47:19.614Z,100
2024-02-24T18:48:23.948Z,100
2024-02-24T18:49:22.488Z,100
2024-02-24T18:50:24.040Z,100
2024-02-24T18:51:25.406Z,100
2024-02-24T18:52:26.447Z,100
2024-02-24T18:53:32.213Z,100
2024-02-24T18:54:27.787Z,100
2024-02-24T18:55:28.957Z,100
2024-02-24T18:56:30.044Z,100
2024-02-24T18:57:31.335Z,100
2024-02-24T18:58:32.544Z,100
2024-02-24T18:59:33.659Z,100
2024-02-24T19:00:34.985Z,100
2024-02-24T19:01:36.220Z,100
2024-02-24T19:02:37.457Z,100
2024-02-24T19:03:38.739Z,100
2024-02-24T19:04:40.039Z,100
2024-02-24T19:05:41.628Z,100
2024-02-24T19:06:43.025Z,100
2024-02-24T19:07:44.090Z,100
2024-02-24T19:08:45.099Z,100
2024-02-24T19:09:46.338Z,100
2024-02-24T19:10:47.393Z,100
2024-02-24T19:11:49.096Z,100
2024-02-24T19:12:50.399Z,100
2024-02-24T19:13:51.616Z,100
2024-02-24T19:14:58.504Z,100
2024-02-24T19:15:54.013Z,100
2024-02-24T19:16:55.526Z,100
2024-02-24T19:17:56.976Z,100
2024-02-24T19:18:59.063Z,100
2024-02-24T19:20:00.427Z,100
2024-02-24T19:21:01.980Z,100
2024-02-24T19:22:03.328Z,100
2024-02-24T19:23:04.510Z,100
2024-02-24T19:24:05.850Z,100
2024-02-24T19:25:07.468Z,100
2024-02-24T19:26:08.675Z,100
2024-02-24T19:27:09.757Z,100
2024-02-24T19:28:11.077Z,100
2024-02-24T19:29:12.346Z,100
2024-02-24T19:30:13.316Z,100
2024-02-24T19:31:14.288Z,100
2024-02-24T19:32:15.217Z,100
2024-02-24T19:33:16.658Z,100
2024-02-24T19:34:18.367Z,100
2024-02-24T19:35:19.949Z,100
2024-02-24T19:37:23.576Z,100
2024-02-24T19:38:25.102Z,100
2024-02-24T19:39:26.490Z,100
2024-02-24T19:40:27.719Z,100
2024-02-24T19:41:28.850Z,100
2024-02-24T19:42:30.136Z,100
2024-02-24T19:43:31.183Z,100
2024-02-24T19:44:32.329Z,100
2024-02-24T19:45:33.707Z,100
2024-02-24T19:46:34.777Z,100
2024-02-24T19:47:35.990Z,100
2024-02-24T19:48:37.422Z,100
2024-02-24T19:49:38.834Z,100
2024-02-24T19:50:40.354Z,100
2024-02-24T19:51:41.460Z,100
2024-02-24T19:52:42.574Z,100
2024-02-24T19:53:43.676Z,100
2024-02-24T19:54:44.858Z,100
2024-02-24T19:55:46.010Z,100
2024-02-24T19:56:47.124Z,100
2024-02-24T19:57:48.330Z,100
2024-02-24T19:58:56.817Z,100
2024-02-24T19:59:51.741Z,100
2024-02-24T20:00:53.107Z,100
2024-02-24T20:01:54.266Z,100
2024-02-24T20:02:55.618Z,100
2024-02-24T20:03:57.164Z,100
2024-02-24T20:04:58.461Z,100
2024-02-24T20:06:00.108Z,100
2024-02-24T20:07:04.968Z,100
2024-02-24T20:08:03.622Z,100
2024-02-24T20:09:05.052Z,100
2024-02-24T20:10:06.493Z,100
2024-02-24T20:11:07.639Z,100
2024-02-24T20:12:08.861Z,100
2024-02-24T20:13:09.949Z,100
2024-02-24T20:14:10.897Z,100
2024-02-24T20:15:12.234Z,100
2024-02-24T20:16:13.787Z,100
2024-02-24T20:17:14.955Z,100
2024-02-24T20:18:16.358Z,100
2024-02-24T20:19:18.091Z,100
2024-02-24T20:20:19.565Z,100
2024-02-24T20:21:20.784Z,100
2024-02-24T20:22:21.755Z,100
2024-02-24T20:23:22.763Z,100
2024-02-24T20:24:23.946Z,100
2024-02-24T20:25:24.967Z,100
2024-02-24T20:26:26.042Z,100
2024-02-24T20:27:27.252Z,100
2024-02-24T20:28:28.325Z,100
2024-02-24T20:29:29.274Z,100
2024-02-24T20:30:30.538Z,100
2024-02-24T20:31:31.683Z,100
2024-02-24T20:32:32.864Z,100
2024-02-24T20:33:34.528Z,100
2024-02-24T20:34:36.451Z,100
2024-02-24T20:35:38.162Z,100
2024-02-24T20:36:39.674Z,100
2024-02-24T20:37:40.817Z,100
2024-02-24T20:38:41.858Z,100
2024-02-24T20:39:43.119Z,100
2024-02-24T20:40:44.075Z,100
2024-02-24T20:41:45.195Z,100
2024-02-24T20:42:46.307Z,100
2024-02-24T20:43:47.444Z,100
2024-02-24T20:44:48.469Z,100
2024-02-24T20:45:49.751Z,100
2024-02-24T20:46:50.831Z,100
2024-02-24T20:47:52.067Z,100
2024-02-24T20:48:53.691Z,100
2024-02-24T20:49:55.329Z,100
2024-02-24T20:50:56.563Z,100
2024-02-24T20:52:00.579Z,100
2024-02-24T20:52:58.457Z,100
2024-02-24T20:53:59.839Z,100
2024-02-24T20:55:01.112Z,100
2024-02-24T20:56:02.106Z,100
2024-02-24T20:57:03.839Z,100
2024-02-24T20:58:05.015Z,100
2024-02-24T20:59:05.928Z,100
2024-02-24T21:00:07.151Z,100
2024-02-24T21:01:08.750Z,100
2024-02-24T21:02:09.979Z,100
2024-02-24T21:03:11.403Z,100
2024-02-24T21:04:12.690Z,100
2024-02-24T21:05:13.817Z,100
2024-02-24T21:06:15.242Z,100
2024-02-24T21:07:16.480Z,100
2024-02-24T21:08:17.474Z,100
2024-02-24T21:09:18.671Z,100
2024-02-24T21:10:19.615Z,100
2024-02-24T21:11:20.967Z,100
2024-02-24T21:12:22.396Z,100
2024-02-24T21:13:23.470Z,100
2024-02-24T21:14:24.584Z,100
2024-02-24T21:15:25.981Z,100
2024-02-24T21:16:26.993Z,100
2024-02-24T21:17:28.341Z,100
2024-02-24T21:18:29.860Z,100
2024-02-24T21:19:31.335Z,100
2024-02-24T21:20:32.739Z,100
2024-02-24T21:21:34.085Z,100
2024-02-24T21:22:35.028Z,100
2024-02-24T21:23:36.171Z,100
2024-02-24T21:24:37.241Z,100
2024-02-24T21:25:38.387Z,100
2024-02-24T21:26:39.867Z,100
2024-02-24T21:27:41.039Z,100
2024-02-24T21:28:42.083Z,100
2024-02-24T21:29:43.281Z,100
2024-02-24T21:30:44.641Z,100
2024-02-24T21:31:45.756Z,100
2024-02-24T21:32:47.165Z,100
2024-02-24T21:33:49.411Z,100
2024-02-24T21:34:50.982Z,100
2024-02-24T21:35:52.549Z,100
2024-02-24T21:36:53.824Z,100
2024-02-24T21:37:54.780Z,100
2024-02-24T21:38:55.862Z,100
2024-02-24T21:39:56.942Z,100
2024-02-24T21:40:58.196Z,100
2024-02-24T21:41:59.754Z,100
2024-02-24T21:43:00.974Z,100
2024-02-24T21:44:02.015Z,100
2024-02-24T21:45:03.334Z,100
2024-02-24T21:46:04.760Z,100
2024-02-24T21:47:05.800Z,100
2024-02-24T21:48:07.349Z,100
2024-02-24T21:49:09.095Z,100
2024-02-24T21:50:10.720Z,100
2024-02-24T21:51:11.873Z,100
2024-02-24T21:52:13.152Z,100
2024-02-24T21:53:14.152Z,100
2024-02-24T21:54:15.276Z,100
2024-02-24T21:55:16.426Z,100
2024-02-24T21:56:17.504Z,100
2024-02-24T21:57:18.596Z,100
2024-02-24T21:58:19.947Z,100
2024-02-24T21:59:21.095Z,100
2024-02-24T22:00:22.289Z,100
2024-02-24T22:01:23.346Z,100
2024-02-24T22:02:24.581Z,100
2024-02-24T22:03:25.746Z,100
2024-02-24T22:04:27.038Z,100
2024-02-24T22:05:28.381Z,100
2024-02-24T22:06:29.946Z,100
2024-02-24T22:07:31.180Z,100
2024-02-24T22:08:32.272Z,100
2024-02-24T22:09:34.425Z,100
2024-02-24T22:10:35.353Z,100
2024-02-24T22:11:36.636Z,100
2024-02-24T22:12:38.002Z,100
2024-02-24T22:13:40.868Z,100
2024-02-24T22:14:41.944Z,100
2024-02-24T22:15:43.214Z,100
2024-02-24T22:16:44.212Z,100
2024-02-24T22:17:45.501Z,100
2024-02-24T22:18:47.023Z,100
2024-02-24T22:19:48.687Z,100
2024-02-24T22:20:50.279Z,100
2024-02-24T22:21:51.558Z,100
2024-02-24T22:22:52.819Z,100
2024-02-24T22:23:54.372Z,100
2024-02-24T22:24:56.112Z,100
2024-02-24T22:25:57.511Z,100
2024-02-24T22:26:58.751Z,100
2024-02-24T22:27:58.948Z,100
2024-02-24T22:29:00.019Z,100
2024-02-24T22:30:15.968Z,100
2024-02-24T22:31:02.584Z,100
2024-02-24T22:32:03.588Z,100
2024-02-24T22:33:05.148Z,100
2024-02-24T22:34:07.066Z,100
2024-02-24T22:35:08.577Z,100
2024-02-24T22:36:11.423Z,100
2024-02-24T22:37:14.315Z,100
2024-02-24T22:38:18.669Z,100
2024-02-24T22:39:18.077Z,100
2024-02-24T22:40:19.019Z,100
2024-02-24T22:41:21.548Z,100
2024-02-24T22:42:22.861Z,100
2024-02-24T22:43:23.847Z,100
2024-02-24T22:44:25.299Z,100
2024-02-24T22:45:26.626Z,100
2024-02-24T22:46:27.732Z,100
2024-02-24T22:47:29.089Z,100
2024-02-24T22:48:30.928Z,100
2024-02-24T22:49:33.183Z,100
2024-02-24T22:50:34.654Z,100
2024-02-24T22:51:35.760Z,100
2024-02-24T22:52:36.713Z,100
2024-02-24T22:53:37.795Z,100
2024-02-24T22:54:39.037Z,100
2024-02-24T22:55:40.196Z,100
2024-02-24T22:56:41.373Z,100
2024-02-24T22:57:42.719Z,100
2024-02-24T22:58:43.733Z,100
2024-02-24T22:59:44.968Z,100
2024-02-24T23:00:46.758Z,100
2024-02-24T23:01:47.979Z,100
2024-02-24T23:02:49.305Z,100
2024-02-24T23:03:50.749Z,100
2024-02-24T23:04:51.984Z,100
2024-02-24T23:05:53.275Z,100
2024-02-24T23:06:55.234Z,100
2024-02-24T23:07:56.741Z,100
2024-02-24T23:08:58.140Z,100
2024-02-24T23:09:59.485Z,100
2024-02-24T23:11:00.751Z,100
2024-02-24T23:12:02.198Z,100
2024-02-24T23:13:03.569Z,100
2024-02-24T23:14:04.563Z,100
2024-02-24T23:15:05.616Z,100
2024-02-24T23:16:07.024Z,100
2024-02-24T23:17:08.551Z,100
2024-02-24T23:18:09.937Z,100
2024-02-24T23:19:11.631Z,100
2024-02-24T23:20:12.915Z,100
2024-02-24T23:21:13.984Z,100
2024-02-24T23:22:15.380Z,100
2024-02-24T23:23:16.398Z,100
2024-02-24T23:24:17.367Z,100
2024-02-24T23:25:18.339Z,100
2024-02-24T23:26:19.423Z,100
2024-02-24T23:27:20.994Z,100
2024-02-24T23:28:22.247Z,100
2024-02-24T23:29:23.330Z,100
2024-02-24T23:30:24.438Z,100
2024-02-24T23:31:25.505Z,100
2024-02-24T23:32:26.683Z,100
2024-02-24T23:33:28.291Z,100
2024-02-24T23:34:29.881Z,100
2024-02-24T23:35:33.130Z,100
2024-02-24T23:36:31.920Z,100
2024-02-24T23:37:32.995Z,100
2024-02-24T23:38:34.171Z,100
2024-02-24T23:39:35.402Z,100
2024-02-24T23:40:36.353Z,100
2024-02-24T23:41:37.546Z,100
2024-02-24T23:42:38.648Z,100
2024-02-24T23:43:39.786Z,100
2024-02-24T23:44:40.966Z,100
2024-02-24T23:45:41.986Z,100
2024-02-24T23:46:42.976Z,100
2024-02-24T23:47:44.356Z,100
2024-02-24T23:48:46.865Z,100
2024-02-24T23:49:48.684Z,100
2024-02-24T23:50:50.133Z,100
2024-02-24T23:51:51.169Z,100
2024-02-24T23:52:52.131Z,100
2024-02-24T23:53:53.390Z,100
2024-02-24T23:54:56.494Z,100
2024-02-24T23:55:57.525Z,100
2024-02-24T23:56:58.691Z,100
2024-02-24T23:58:00.070Z,100
2024-02-24T23:59:01.009Z,100
